sensor_id;sensor_type;location;lat;lon;timestamp;pressure;altitude;pressure_sealevel;temperature;humidity
47082;BME280;33066;49.296;14.470;2024-02-26T00:00:28;95584.94;;;8.81;34.78
47082;BME280;33066;49.296;14.470;2024-02-26T00:02:53;95580.80;;;8.97;34.91
47082;BME280;33066;49.296;14.470;2024-02-26T00:05:19;95576.93;;;8.93;34.84
47082;BME280;33066;49.296;14.470;2024-02-26T00:07:44;95572.34;;;8.84;34.81
47082;BME280;33066;49.296;14.470;2024-02-26T00:10:10;95571.59;;;8.89;34.70
47082;BME280;33066;49.296;14.470;2024-02-26T00:12:36;95569.66;;;8.53;34.77
47082;BME280;33066;49.296;14.470;2024-02-26T00:15:01;95567.93;;;8.84;34.87
47082;BME280;33066;49.296;14.470;2024-02-26T00:17:27;95565.68;;;8.74;34.91
47082;BME280;33066;49.296;14.470;2024-02-26T00:19:53;95565.04;;;8.74;35.12
47082;BME280;33066;49.296;14.470;2024-02-26T00:22:18;95563.91;;;8.88;35.06
47082;BME280;33066;49.296;14.470;2024-02-26T00:24:43;95563.88;;;8.50;35.31
47082;BME280;33066;49.296;14.470;2024-02-26T00:27:09;95564.66;;;8.57;35.44
47082;BME280;33066;49.296;14.470;2024-02-26T00:29:35;95564.00;;;8.74;35.35
47082;BME280;33066;49.296;14.470;2024-02-26T00:32:00;95564.74;;;8.54;35.43
47082;BME280;33066;49.296;14.470;2024-02-26T00:34:26;95562.66;;;8.67;35.26
47082;BME280;33066;49.296;14.470;2024-02-26T00:36:51;95563.64;;;8.62;35.25
47082;BME280;33066;49.296;14.470;2024-02-26T00:39:17;95561.78;;;8.37;35.11
47082;BME280;33066;49.296;14.470;2024-02-26T00:41:43;95557.89;;;8.56;35.24
47082;BME280;33066;49.296;14.470;2024-02-26T00:44:08;95558.23;;;8.28;35.35
47082;BME280;33066;49.296;14.470;2024-02-26T00:46:33;95552.54;;;8.31;35.38
47082;BME280;33066;49.296;14.470;2024-02-26T00:48:58;95552.62;;;8.35;35.24
47082;BME280;33066;49.296;14.470;2024-02-26T00:51:23;95549.44;;;8.77;35.09
47082;BME280;33066;49.296;14.470;2024-02-26T00:53:49;95548.28;;;8.42;35.10
47082;BME280;33066;49.296;14.470;2024-02-26T00:56:14;95548.09;;;8.50;35.20
47082;BME280;33066;49.296;14.470;2024-02-26T00:58:39;95546.66;;;8.52;35.12
47082;BME280;33066;49.296;14.470;2024-02-26T01:01:05;95549.25;;;8.32;35.28
47082;BME280;33066;49.296;14.470;2024-02-26T01:03:31;95550.83;;;8.26;35.33
47082;BME280;33066;49.296;14.470;2024-02-26T01:05:56;95548.16;;;8.28;35.31
47082;BME280;33066;49.296;14.470;2024-02-26T01:08:21;95542.10;;;8.58;35.29
47082;BME280;33066;49.296;14.470;2024-02-26T01:10:47;95536.90;;;8.11;35.22
47082;BME280;33066;49.296;14.470;2024-02-26T01:13:12;95530.79;;;8.29;35.18
47082;BME280;33066;49.296;14.470;2024-02-26T01:15:37;95530.80;;;8.57;34.92
47082;BME280;33066;49.296;14.470;2024-02-26T01:18:02;95535.22;;;8.52;34.86
47082;BME280;33066;49.296;14.470;2024-02-26T01:20:28;95533.98;;;8.63;34.72
47082;BME280;33066;49.296;14.470;2024-02-26T01:22:54;95530.45;;;8.59;34.69
47082;BME280;33066;49.296;14.470;2024-02-26T01:25:19;95530.63;;;8.26;34.81
47082;BME280;33066;49.296;14.470;2024-02-26T01:27:45;95530.38;;;8.19;34.79
47082;BME280;33066;49.296;14.470;2024-02-26T01:30:11;95523.98;;;8.22;34.89
47082;BME280;33066;49.296;14.470;2024-02-26T01:32:35;95525.67;;;8.14;35.01
47082;BME280;33066;49.296;14.470;2024-02-26T01:35:01;95523.14;;;8.35;35.20
47082;BME280;33066;49.296;14.470;2024-02-26T01:37:27;95522.31;;;8.20;35.28
47082;BME280;33066;49.296;14.470;2024-02-26T01:39:52;95520.13;;;8.51;35.20
47082;BME280;33066;49.296;14.470;2024-02-26T01:42:18;95514.30;;;8.63;35.06
47082;BME280;33066;49.296;14.470;2024-02-26T01:44:43;95511.73;;;8.50;35.18
47082;BME280;33066;49.296;14.470;2024-02-26T01:47:11;95513.62;;;8.51;35.13
47082;BME280;33066;49.296;14.470;2024-02-26T01:49:34;95511.44;;;8.28;35.34
47082;BME280;33066;49.296;14.470;2024-02-26T01:52:00;95511.64;;;8.50;35.31
47082;BME280;33066;49.296;14.470;2024-02-26T01:54:26;95509.92;;;8.43;35.42
47082;BME280;33066;49.296;14.470;2024-02-26T01:56:50;95509.92;;;8.53;35.38
47082;BME280;33066;49.296;14.470;2024-02-26T01:59:16;95508.10;;;8.40;35.17
47082;BME280;33066;49.296;14.470;2024-02-26T02:01:44;95510.28;;;8.58;35.30
47082;BME280;33066;49.296;14.470;2024-02-26T02:04:06;95506.54;;;8.41;35.61
47082;BME280;33066;49.296;14.470;2024-02-26T02:06:32;95505.37;;;8.25;35.72
47082;BME280;33066;49.296;14.470;2024-02-26T02:08:57;95508.06;;;7.92;35.89
47082;BME280;33066;49.296;14.470;2024-02-26T02:11:23;95508.85;;;8.61;35.99
47082;BME280;33066;49.296;14.470;2024-02-26T02:13:48;95505.62;;;8.17;36.07
47082;BME280;33066;49.296;14.470;2024-02-26T02:16:14;95500.73;;;8.38;36.01
47082;BME280;33066;49.296;14.470;2024-02-26T02:18:39;95498.62;;;8.48;36.81
47082;BME280;33066;49.296;14.470;2024-02-26T02:21:04;95505.03;;;8.34;37.04
47082;BME280;33066;49.296;14.470;2024-02-26T02:23:30;95500.78;;;8.50;37.47
47082;BME280;33066;49.296;14.470;2024-02-26T02:25:57;95500.85;;;8.67;37.71
47082;BME280;33066;49.296;14.470;2024-02-26T02:28:22;95498.94;;;8.63;37.65
47082;BME280;33066;49.296;14.470;2024-02-26T02:30:47;95498.89;;;8.34;37.63
47082;BME280;33066;49.296;14.470;2024-02-26T02:33:12;95497.00;;;8.31;37.72
47082;BME280;33066;49.296;14.470;2024-02-26T02:35:37;95495.09;;;8.52;37.94
47082;BME280;33066;49.296;14.470;2024-02-26T02:38:03;95494.35;;;8.62;38.14
47082;BME280;33066;49.296;14.470;2024-02-26T02:40:28;95493.49;;;8.52;37.72
47082;BME280;33066;49.296;14.470;2024-02-26T02:42:53;95492.26;;;8.71;37.59
47082;BME280;33066;49.296;14.470;2024-02-26T02:45:19;95491.95;;;8.75;37.62
47082;BME280;33066;49.296;14.470;2024-02-26T02:47:44;95496.24;;;8.75;37.42
47082;BME280;33066;49.296;14.470;2024-02-26T02:50:10;95499.04;;;8.50;37.47
47082;BME280;33066;49.296;14.470;2024-02-26T02:52:35;95498.80;;;8.79;37.67
47082;BME280;33066;49.296;14.470;2024-02-26T02:55:01;95502.73;;;8.83;37.39
47082;BME280;33066;49.296;14.470;2024-02-26T02:57:25;95502.80;;;8.90;37.02
47082;BME280;33066;49.296;14.470;2024-02-26T02:59:51;95499.23;;;8.99;36.85
47082;BME280;33066;49.296;14.470;2024-02-26T03:02:17;95499.58;;;9.08;36.65
47082;BME280;33066;49.296;14.470;2024-02-26T03:04:42;95501.18;;;8.87;36.69
47082;BME280;33066;49.296;14.470;2024-02-26T03:07:08;95504.74;;;8.82;36.75
47082;BME280;33066;49.296;14.470;2024-02-26T03:09:33;95504.66;;;8.76;36.68
47082;BME280;33066;49.296;14.470;2024-02-26T03:11:58;95509.74;;;8.82;36.70
47082;BME280;33066;49.296;14.470;2024-02-26T03:14:24;95514.39;;;9.15;36.56
47082;BME280;33066;49.296;14.470;2024-02-26T03:16:53;95513.83;;;8.96;36.41
47082;BME280;33066;49.296;14.470;2024-02-26T03:19:15;95514.95;;;8.96;36.38
47082;BME280;33066;49.296;14.470;2024-02-26T03:21:40;95516.27;;;8.94;36.45
47082;BME280;33066;49.296;14.470;2024-02-26T03:24:06;95515.13;;;8.96;36.40
47082;BME280;33066;49.296;14.470;2024-02-26T03:26:30;95515.82;;;8.68;36.57
47082;BME280;33066;49.296;14.470;2024-02-26T03:28:56;95513.57;;;8.88;36.47
47082;BME280;33066;49.296;14.470;2024-02-26T03:31:22;95516.52;;;8.92;36.67
47082;BME280;33066;49.296;14.470;2024-02-26T03:33:47;95515.15;;;9.12;36.54
47082;BME280;33066;49.296;14.470;2024-02-26T03:36:13;95518.07;;;8.74;36.68
47082;BME280;33066;49.296;14.470;2024-02-26T03:38:39;95520.07;;;8.65;36.72
47082;BME280;33066;49.296;14.470;2024-02-26T03:41:03;95521.18;;;8.44;36.89
47082;BME280;33066;49.296;14.470;2024-02-26T03:43:29;95521.96;;;9.00;36.68
47082;BME280;33066;49.296;14.470;2024-02-26T03:45:54;95518.82;;;8.77;36.61
47082;BME280;33066;49.296;14.470;2024-02-26T03:48:20;95518.33;;;8.49;36.73
47082;BME280;33066;49.296;14.470;2024-02-26T03:50:45;95523.62;;;8.86;36.49
47082;BME280;33066;49.296;14.470;2024-02-26T03:53:11;95522.83;;;8.65;36.64
47082;BME280;33066;49.296;14.470;2024-02-26T03:55:37;95517.24;;;8.80;36.62
47082;BME280;33066;49.296;14.470;2024-02-26T03:58:02;95516.85;;;9.00;36.70
47082;BME280;33066;49.296;14.470;2024-02-26T04:00:28;95514.11;;;8.52;36.75
47082;BME280;33066;49.296;14.470;2024-02-26T04:02:53;95513.04;;;8.77;36.60
47082;BME280;33066;49.296;14.470;2024-02-26T04:05:19;95510.48;;;8.77;36.46
47082;BME280;33066;49.296;14.470;2024-02-26T04:13:01;95508.38;;;8.08;35.80
47082;BME280;33066;49.296;14.470;2024-02-26T04:15:25;95506.22;;;9.45;35.52
47082;BME280;33066;49.296;14.470;2024-02-26T04:17:51;95508.23;;;9.31;36.28
47082;BME280;33066;49.296;14.470;2024-02-26T04:20:17;95510.26;;;9.07;36.47
47082;BME280;33066;49.296;14.470;2024-02-26T04:22:43;95506.79;;;8.79;36.74
47082;BME280;33066;49.296;14.470;2024-02-26T04:25:08;95506.64;;;8.83;37.22
47082;BME280;33066;49.296;14.470;2024-02-26T04:27:33;95502.89;;;8.73;37.24
47082;BME280;33066;49.296;14.470;2024-02-26T04:29:59;95501.66;;;8.49;37.27
47082;BME280;33066;49.296;14.470;2024-02-26T04:32:25;95497.96;;;8.60;37.24
47082;BME280;33066;49.296;14.470;2024-02-26T04:34:50;95495.70;;;8.54;37.41
47082;BME280;33066;49.296;14.470;2024-02-26T04:37:16;95495.90;;;8.62;37.29
47082;BME280;33066;49.296;14.470;2024-02-26T04:39:41;95500.86;;;8.62;37.41
47082;BME280;33066;49.296;14.470;2024-02-26T04:42:07;95504.58;;;8.69;37.54
47082;BME280;33066;49.296;14.470;2024-02-26T04:44:32;95507.01;;;8.73;37.23
47082;BME280;33066;49.296;14.470;2024-02-26T04:46:57;95508.93;;;8.48;37.32
47082;BME280;33066;49.296;14.470;2024-02-26T04:49:22;95510.62;;;8.65;37.24
47082;BME280;33066;49.296;14.470;2024-02-26T04:51:48;95510.39;;;8.39;37.23
47082;BME280;33066;49.296;14.470;2024-02-26T04:54:13;95504.96;;;8.47;37.24
47082;BME280;33066;49.296;14.470;2024-02-26T04:56:39;95504.68;;;8.76;37.25
47082;BME280;33066;49.296;14.470;2024-02-26T04:59:04;95504.91;;;8.41;37.03
47082;BME280;33066;49.296;14.470;2024-02-26T05:01:29;95502.63;;;8.66;37.22
47082;BME280;33066;49.296;14.470;2024-02-26T05:03:54;95499.95;;;8.60;37.30
47082;BME280;33066;49.296;14.470;2024-02-26T05:06:20;95498.28;;;8.61;37.39
47082;BME280;33066;49.296;14.470;2024-02-26T05:08:46;95495.08;;;8.39;37.36
47082;BME280;33066;49.296;14.470;2024-02-26T05:11:11;95497.41;;;8.66;37.63
47082;BME280;33066;49.296;14.470;2024-02-26T05:13:36;95499.93;;;8.48;38.11
47082;BME280;33066;49.296;14.470;2024-02-26T05:16:02;95499.55;;;8.67;37.49
47082;BME280;33066;49.296;14.470;2024-02-26T05:18:27;95503.52;;;8.63;37.40
47082;BME280;33066;49.296;14.470;2024-02-26T05:20:52;95507.42;;;8.42;37.13
47082;BME280;33066;49.296;14.470;2024-02-26T05:23:18;95507.36;;;8.69;37.52
47082;BME280;33066;49.296;14.470;2024-02-26T05:25:44;95510.39;;;8.40;37.33
47082;BME280;33066;49.296;14.470;2024-02-26T05:28:09;95514.42;;;8.59;37.07
47082;BME280;33066;49.296;14.470;2024-02-26T05:30:34;95520.65;;;8.60;36.64
47082;BME280;33066;49.296;14.470;2024-02-26T05:33:00;95522.83;;;8.38;37.50
47082;BME280;33066;49.296;14.470;2024-02-26T05:35:25;95525.68;;;8.52;37.33
47082;BME280;33066;49.296;14.470;2024-02-26T05:37:50;95524.04;;;8.44;37.28
47082;BME280;33066;49.296;14.470;2024-02-26T05:40:16;95528.41;;;8.56;36.83
47082;BME280;33066;49.296;14.470;2024-02-26T05:42:41;95529.98;;;8.45;36.90
47082;BME280;33066;49.296;14.470;2024-02-26T05:45:07;95527.41;;;8.43;37.21
47082;BME280;33066;49.296;14.470;2024-02-26T05:47:32;95533.64;;;8.29;37.31
47082;BME280;33066;49.296;14.470;2024-02-26T05:49:57;95540.89;;;8.25;37.35
47082;BME280;33066;49.296;14.470;2024-02-26T05:52:22;95548.25;;;8.34;37.28
47082;BME280;33066;49.296;14.470;2024-02-26T05:54:48;95552.25;;;8.26;37.19
47082;BME280;33066;49.296;14.470;2024-02-26T05:57:13;95556.64;;;8.33;37.22
47082;BME280;33066;49.296;14.470;2024-02-26T05:59:39;95558.56;;;8.33;37.25
47082;BME280;33066;49.296;14.470;2024-02-26T06:02:05;95557.85;;;8.33;37.79
47082;BME280;33066;49.296;14.470;2024-02-26T06:04:30;95556.51;;;8.46;37.13
47082;BME280;33066;49.296;14.470;2024-02-26T06:06:55;95556.11;;;8.11;37.52
47082;BME280;33066;49.296;14.470;2024-02-26T06:09:22;95559.52;;;8.41;36.38
47082;BME280;33066;49.296;14.470;2024-02-26T06:11:47;95559.19;;;8.41;36.51
47082;BME280;33066;49.296;14.470;2024-02-26T06:14:12;95559.18;;;8.75;36.84
47082;BME280;33066;49.296;14.470;2024-02-26T06:16:37;95565.55;;;8.24;36.98
47082;BME280;33066;49.296;14.470;2024-02-26T06:19:03;95561.63;;;8.59;37.08
47082;BME280;33066;49.296;14.470;2024-02-26T06:21:28;95559.20;;;8.66;37.31
47082;BME280;33066;49.296;14.470;2024-02-26T06:23:53;95560.16;;;8.46;36.83
47082;BME280;33066;49.296;14.470;2024-02-26T06:26:18;95565.29;;;8.74;37.28
47082;BME280;33066;49.296;14.470;2024-02-26T06:28:43;95569.64;;;8.54;37.38
47082;BME280;33066;49.296;14.470;2024-02-26T06:31:09;95570.72;;;8.35;36.94
47082;BME280;33066;49.296;14.470;2024-02-26T06:33:34;95574.47;;;8.56;36.88
47082;BME280;33066;49.296;14.470;2024-02-26T06:36:00;95581.00;;;9.05;36.84
47082;BME280;33066;49.296;14.470;2024-02-26T06:38:25;95579.43;;;8.84;36.84
47082;BME280;33066;49.296;14.470;2024-02-26T06:40:50;95583.36;;;8.50;37.08
47082;BME280;33066;49.296;14.470;2024-02-26T06:43:16;95590.53;;;8.53;36.71
47082;BME280;33066;49.296;14.470;2024-02-26T06:45:42;95593.47;;;8.54;37.89
47082;BME280;33066;49.296;14.470;2024-02-26T06:48:07;95591.60;;;8.53;37.64
47082;BME280;33066;49.296;14.470;2024-02-26T06:50:32;95586.87;;;8.43;37.58
47082;BME280;33066;49.296;14.470;2024-02-26T06:52:58;95584.08;;;8.50;38.05
47082;BME280;33066;49.296;14.470;2024-02-26T06:55:23;95590.56;;;8.40;38.08
47082;BME280;33066;49.296;14.470;2024-02-26T06:57:49;95590.62;;;8.79;38.10
47082;BME280;33066;49.296;14.470;2024-02-26T07:00:15;95590.35;;;8.63;37.29
47082;BME280;33066;49.296;14.470;2024-02-26T07:02:40;95587.04;;;8.66;37.48
47082;BME280;33066;49.296;14.470;2024-02-26T07:05:05;95584.96;;;8.88;37.36
47082;BME280;33066;49.296;14.470;2024-02-26T07:07:31;95586.25;;;8.78;37.44
47082;BME280;33066;49.296;14.470;2024-02-26T07:09:56;95585.31;;;8.85;37.13
47082;BME280;33066;49.296;14.470;2024-02-26T07:12:22;95581.68;;;9.16;37.07
47082;BME280;33066;49.296;14.470;2024-02-26T07:14:47;95581.39;;;9.09;37.07
47082;BME280;33066;49.296;14.470;2024-02-26T07:17:12;95583.08;;;8.90;37.17
47082;BME280;33066;49.296;14.470;2024-02-26T07:19:38;95580.73;;;8.95;37.30
47082;BME280;33066;49.296;14.470;2024-02-26T07:22:03;95585.15;;;9.11;37.28
47082;BME280;33066;49.296;14.470;2024-02-26T07:24:29;95585.91;;;8.95;37.10
47082;BME280;33066;49.296;14.470;2024-02-26T07:26:54;95589.00;;;8.91;37.21
47082;BME280;33066;49.296;14.470;2024-02-26T07:29:19;95590.45;;;9.21;37.08
47082;BME280;33066;49.296;14.470;2024-02-26T07:31:46;95591.49;;;9.20;36.97
47082;BME280;33066;49.296;14.470;2024-02-26T07:34:10;95587.07;;;9.28;36.89
47082;BME280;33066;49.296;14.470;2024-02-26T07:36:36;95585.81;;;9.08;36.90
47082;BME280;33066;49.296;14.470;2024-02-26T07:39:02;95586.75;;;9.07;36.99
47082;BME280;33066;49.296;14.470;2024-02-26T07:41:27;95588.66;;;9.35;37.05
47082;BME280;33066;49.296;14.470;2024-02-26T07:43:53;95594.51;;;9.49;36.96
47082;BME280;33066;49.296;14.470;2024-02-26T07:46:19;95596.88;;;9.05;36.88
47082;BME280;33066;49.296;14.470;2024-02-26T07:48:45;95599.94;;;9.05;36.85
47082;BME280;33066;49.296;14.470;2024-02-26T07:51:12;95602.11;;;9.24;36.71
47082;BME280;33066;49.296;14.470;2024-02-26T07:53:36;95603.81;;;8.97;36.91
47082;BME280;33066;49.296;14.470;2024-02-26T07:56:02;95608.50;;;9.15;36.80
47082;BME280;33066;49.296;14.470;2024-02-26T07:58:27;95612.46;;;8.86;36.72
47082;BME280;33066;49.296;14.470;2024-02-26T08:00:52;95617.28;;;9.29;37.23
47082;BME280;33066;49.296;14.470;2024-02-26T08:03:18;95619.80;;;9.00;37.69
47082;BME280;33066;49.296;14.470;2024-02-26T08:05:43;95619.38;;;9.29;37.73
47082;BME280;33066;49.296;14.470;2024-02-26T08:08:09;95622.97;;;9.23;37.75
47082;BME280;33066;49.296;14.470;2024-02-26T08:10:34;95629.79;;;9.07;37.81
47082;BME280;33066;49.296;14.470;2024-02-26T08:12:59;95626.07;;;9.09;37.89
47082;BME280;33066;49.296;14.470;2024-02-26T08:15:25;95621.98;;;9.03;37.43
47082;BME280;33066;49.296;14.470;2024-02-26T08:17:50;95625.41;;;9.30;37.63
47082;BME280;33066;49.296;14.470;2024-02-26T08:20:15;95626.13;;;9.23;37.38
47082;BME280;33066;49.296;14.470;2024-02-26T08:22:41;95630.87;;;9.12;37.56
47082;BME280;33066;49.296;14.470;2024-02-26T08:25:06;95629.77;;;9.23;37.89
47082;BME280;33066;49.296;14.470;2024-02-26T08:27:32;95626.78;;;9.40;37.87
47082;BME280;33066;49.296;14.470;2024-02-26T08:29:57;95619.64;;;9.25;37.57
47082;BME280;33066;49.296;14.470;2024-02-26T08:32:22;95621.35;;;9.54;37.58
47082;BME280;33066;49.296;14.470;2024-02-26T08:34:47;95622.98;;;9.44;37.66
47082;BME280;33066;49.296;14.470;2024-02-26T08:37:13;95623.71;;;9.48;37.35
47082;BME280;33066;49.296;14.470;2024-02-26T08:39:39;95628.77;;;9.58;37.18
47082;BME280;33066;49.296;14.470;2024-02-26T08:42:04;95628.64;;;9.66;37.20
47082;BME280;33066;49.296;14.470;2024-02-26T08:44:29;95628.88;;;9.48;37.29
47082;BME280;33066;49.296;14.470;2024-02-26T08:46:55;95632.92;;;9.75;37.35
47082;BME280;33066;49.296;14.470;2024-02-26T08:49:20;95632.05;;;9.67;37.41
47082;BME280;33066;49.296;14.470;2024-02-26T08:51:45;95629.65;;;9.65;37.55
47082;BME280;33066;49.296;14.470;2024-02-26T08:54:11;95624.98;;;9.59;37.53
47082;BME280;33066;49.296;14.470;2024-02-26T08:56:37;95626.96;;;10.14;37.03
47082;BME280;33066;49.296;14.470;2024-02-26T08:59:02;95631.64;;;9.70;37.35
47082;BME280;33066;49.296;14.470;2024-02-26T09:01:27;95633.92;;;9.77;37.19
47082;BME280;33066;49.296;14.470;2024-02-26T09:03:52;95636.38;;;10.34;37.10
47082;BME280;33066;49.296;14.470;2024-02-26T09:06:18;95637.81;;;9.96;36.94
47082;BME280;33066;49.296;14.470;2024-02-26T09:08:43;95641.57;;;10.11;36.88
47082;BME280;33066;49.296;14.470;2024-02-26T09:11:09;95645.82;;;10.35;36.88
47082;BME280;33066;49.296;14.470;2024-02-26T09:13:34;95647.43;;;9.90;36.79
47082;BME280;33066;49.296;14.470;2024-02-26T09:15:59;95648.34;;;9.90;36.83
47082;BME280;33066;49.296;14.470;2024-02-26T09:18:25;95651.50;;;9.82;37.05
47082;BME280;33066;49.296;14.470;2024-02-26T09:20:51;95648.24;;;9.93;37.03
47082;BME280;33066;49.296;14.470;2024-02-26T09:23:16;95647.81;;;10.35;36.99
47082;BME280;33066;49.296;14.470;2024-02-26T09:25:41;95649.90;;;10.13;36.83
47082;BME280;33066;49.296;14.470;2024-02-26T09:28:07;95651.84;;;10.35;37.01
47082;BME280;33066;49.296;14.470;2024-02-26T09:30:32;95652.91;;;10.04;37.06
47082;BME280;33066;49.296;14.470;2024-02-26T09:32:57;95654.98;;;10.04;37.02
47082;BME280;33066;49.296;14.470;2024-02-26T09:35:22;95659.94;;;10.12;37.05
47082;BME280;33066;49.296;14.470;2024-02-26T09:37:47;95662.50;;;10.17;37.02
47082;BME280;33066;49.296;14.470;2024-02-26T09:40:13;95664.74;;;10.24;37.15
47082;BME280;33066;49.296;14.470;2024-02-26T09:42:43;95665.93;;;10.47;36.98
47082;BME280;33066;49.296;14.470;2024-02-26T09:45:06;95669.26;;;10.64;36.90
47082;BME280;33066;49.296;14.470;2024-02-26T09:47:31;95674.04;;;10.77;36.83
47082;BME280;33066;49.296;14.470;2024-02-26T09:49:56;95673.25;;;10.90;36.68
47082;BME280;33066;49.296;14.470;2024-02-26T09:52:19;95670.77;;;10.90;36.71
47082;BME280;33066;49.296;14.470;2024-02-26T09:54:47;95675.32;;;10.97;36.80
47082;BME280;33066;49.296;14.470;2024-02-26T09:57:10;95671.79;;;11.01;36.74
47082;BME280;33066;49.296;14.470;2024-02-26T09:59:39;95670.16;;;11.13;36.78
47082;BME280;33066;49.296;14.470;2024-02-26T10:02:01;95669.52;;;11.09;37.42
47082;BME280;33066;49.296;14.470;2024-02-26T10:04:26;95673.61;;;10.98;37.20
47082;BME280;33066;49.296;14.470;2024-02-26T10:06:52;95674.98;;;11.35;37.09
47082;BME280;33066;49.296;14.470;2024-02-26T10:09:18;95678.17;;;11.45;37.16
47082;BME280;33066;49.296;14.470;2024-02-26T10:11:43;95679.39;;;11.08;36.93
47082;BME280;33066;49.296;14.470;2024-02-26T10:14:08;95677.89;;;11.55;36.79
47082;BME280;33066;49.296;14.470;2024-02-26T10:16:33;95675.97;;;11.37;37.20
47082;BME280;33066;49.296;14.470;2024-02-26T10:18:59;95672.82;;;11.44;37.00
47082;BME280;33066;49.296;14.470;2024-02-26T10:21:25;95671.86;;;11.33;37.11
47082;BME280;33066;49.296;14.470;2024-02-26T10:23:51;95671.96;;;11.16;37.12
47082;BME280;33066;49.296;14.470;2024-02-26T10:26:16;95672.81;;;11.55;37.46
47082;BME280;33066;49.296;14.470;2024-02-26T10:28:43;95673.58;;;11.32;37.31
47082;BME280;33066;49.296;14.470;2024-02-26T10:31:07;95677.58;;;11.47;37.10
47082;BME280;33066;49.296;14.470;2024-02-26T10:33:33;95673.90;;;11.57;37.30
47082;BME280;33066;49.296;14.470;2024-02-26T10:35:57;95675.79;;;11.64;37.08
47082;BME280;33066;49.296;14.470;2024-02-26T10:38:24;95682.09;;;11.69;36.80
47082;BME280;33066;49.296;14.470;2024-02-26T10:40:49;95685.65;;;11.84;36.76
47082;BME280;33066;49.296;14.470;2024-02-26T10:43:14;95686.58;;;11.68;36.54
47082;BME280;33066;49.296;14.470;2024-02-26T10:45:39;95686.32;;;11.84;37.04
47082;BME280;33066;49.296;14.470;2024-02-26T10:48:05;95686.39;;;11.81;36.79
47082;BME280;33066;49.296;14.470;2024-02-26T10:50:30;95687.65;;;11.87;36.80
47082;BME280;33066;49.296;14.470;2024-02-26T10:52:56;95684.66;;;11.94;36.90
47082;BME280;33066;49.296;14.470;2024-02-26T10:55:22;95687.60;;;11.94;37.17
47082;BME280;33066;49.296;14.470;2024-02-26T10:57:47;95686.98;;;12.01;37.08
47082;BME280;33066;49.296;14.470;2024-02-26T11:00:14;95686.03;;;12.11;36.75
47082;BME280;33066;49.296;14.470;2024-02-26T11:02:36;95686.95;;;11.67;36.65
47082;BME280;33066;49.296;14.470;2024-02-26T11:05:02;95685.17;;;12.45;36.67
47082;BME280;33066;49.296;14.470;2024-02-26T11:07:28;95684.79;;;12.16;36.60
47082;BME280;33066;49.296;14.470;2024-02-26T11:09:53;95681.82;;;12.21;36.58
47082;BME280;33066;49.296;14.470;2024-02-26T11:12:18;95677.57;;;12.23;36.59
47082;BME280;33066;49.296;14.470;2024-02-26T11:14:45;95678.62;;;12.20;36.68
47082;BME280;33066;49.296;14.470;2024-02-26T11:17:11;95675.62;;;12.24;36.60
47082;BME280;33066;49.296;14.470;2024-02-26T11:19:36;95671.93;;;12.45;36.43
47082;BME280;33066;49.296;14.470;2024-02-26T11:22:00;95664.73;;;12.47;36.35
47082;BME280;33066;49.296;14.470;2024-02-26T11:24:25;95657.79;;;12.78;36.24
47082;BME280;33066;49.296;14.470;2024-02-26T11:26:52;95655.62;;;12.39;36.08
47082;BME280;33066;49.296;14.470;2024-02-26T11:29:21;95655.19;;;12.40;36.12
47082;BME280;33066;49.296;14.470;2024-02-26T11:31:41;95657.56;;;12.63;36.22
47082;BME280;33066;49.296;14.470;2024-02-26T11:34:07;95657.41;;;12.56;36.18
47082;BME280;33066;49.296;14.470;2024-02-26T11:36:31;95657.30;;;12.19;36.20
47082;BME280;33066;49.296;14.470;2024-02-26T11:38:56;95655.19;;;12.46;36.27
47082;BME280;33066;49.296;14.470;2024-02-26T11:41:22;95654.16;;;12.44;36.33
47082;BME280;33066;49.296;14.470;2024-02-26T11:43:50;95657.45;;;12.22;36.32
47082;BME280;33066;49.296;14.470;2024-02-26T11:46:25;95654.31;;;12.54;36.06
47082;BME280;33066;49.296;14.470;2024-02-26T11:48:37;95647.40;;;12.32;35.85
47082;BME280;33066;49.296;14.470;2024-02-26T11:51:05;95643.01;;;12.82;35.81
47082;BME280;33066;49.296;14.470;2024-02-26T11:53:30;95643.60;;;12.91;35.86
47082;BME280;33066;49.296;14.470;2024-02-26T11:56:13;95642.44;;;12.76;35.88
47082;BME280;33066;49.296;14.470;2024-02-26T11:58:20;95643.94;;;12.57;35.92
47082;BME280;33066;49.296;14.470;2024-02-26T12:00:46;95643.55;;;13.15;35.88
47082;BME280;33066;49.296;14.470;2024-02-26T12:03:11;95641.83;;;12.67;35.92
47082;BME280;33066;49.296;14.470;2024-02-26T12:05:37;95645.59;;;12.69;36.10
47082;BME280;33066;49.296;14.470;2024-02-26T12:08:03;95644.99;;;12.72;35.96
47082;BME280;33066;49.296;14.470;2024-02-26T12:10:30;95644.10;;;12.64;35.57
47082;BME280;33066;49.296;14.470;2024-02-26T12:12:55;95642.32;;;12.66;35.88
47082;BME280;33066;49.296;14.470;2024-02-26T12:15:19;95645.09;;;12.78;35.83
47082;BME280;33066;49.296;14.470;2024-02-26T12:17:48;95648.76;;;12.65;35.83
47082;BME280;33066;49.296;14.470;2024-02-26T12:20:10;95655.83;;;12.39;36.34
47082;BME280;33066;49.296;14.470;2024-02-26T12:22:35;95662.61;;;12.46;36.30
47082;BME280;33066;49.296;14.470;2024-02-26T12:25:01;95663.63;;;12.46;36.09
47082;BME280;33066;49.296;14.470;2024-02-26T12:27:26;95660.47;;;12.46;35.86
47082;BME280;33066;49.296;14.470;2024-02-26T12:29:53;95664.58;;;12.75;36.23
47082;BME280;33066;49.296;14.470;2024-02-26T12:32:16;95667.12;;;12.72;36.32
47082;BME280;33066;49.296;14.470;2024-02-26T12:34:42;95666.44;;;12.30;36.16
47082;BME280;33066;49.296;14.470;2024-02-26T12:37:10;95662.76;;;12.57;36.45
47082;BME280;33066;49.296;14.470;2024-02-26T12:39:33;95659.98;;;12.63;36.71
47082;BME280;33066;49.296;14.470;2024-02-26T12:41:58;95659.66;;;12.55;36.43
47082;BME280;33066;49.296;14.470;2024-02-26T12:44:25;95661.61;;;12.71;36.57
47082;BME280;33066;49.296;14.470;2024-02-26T12:46:49;95666.66;;;12.02;36.25
47082;BME280;33066;49.296;14.470;2024-02-26T12:49:16;95672.20;;;12.26;36.43
47082;BME280;33066;49.296;14.470;2024-02-26T12:51:40;95673.36;;;12.18;36.54